Terminal Aerodrome Forecast
Issued by NWS

Home | Current Version | Previous Version | Text Only | Print | Product List | Glossary On
Versions: 1 2 3 4 5 6 7 8 9 10 11 12 13 14 15 16 17 18 19 20
780
FTUS43 KDTX 280521
TAFMBS
TAF
KMBS 280521Z 2806/2906 03008KT 4SM BR BKN004 OVC014
     FM280900 02006KT 6SM BR SCT008 OVC012
     FM281400 02011KT P6SM OVC018
     FM281700 03012KT P6SM BKN024
     FM282100 01008KT P6SM SCT026
     FM290000 05006KT P6SM SKC=

USA.gov is the U.S. government's official web portal to all federal, state and local government web resources and services.